Meteo4 di Emilio Bellavite Il primo osservatorio Meteo di Verona  
 
mercoledì 18 gennaio 2017
 
 
dati in tempo reale
Di seguito i dati in tempo reale delle stazioni on line della rete di Meteo4. Cliccando sul link della stazione, ove presente, si accederà al sito web personale.
Stazioni online
Località Giorno Ora Temp. Umid. Relat. Dew Point Press. Atm. Velocità Vento Direz. Vento Precip. Temp.
Min
Temp.
Max
Abano (PD) 18/01/17 18.55 5.0 °C 55 % -3.3 °C 1024.8 hPa 6.4 Km/h ENE 0.0 mm  -0.6 °C 9.1 °C
Acquapendente (VT) 18/01/17 18.52 3.7 °C 80 % 0.6 °C 966.5 hPa 3.2 Km/h NNE 0.0 mm  2.2 °C 3.9 °C
Acquaviva delle Fonti (BA) 18/01/17 18.53 4.7 °C 94 % 3.8 °C 1010.9 hPa 7.0 Km/h N 24.2 mm  2.2 °C 9.5 °C
Ala (TN) 18/01/17 18.53 2.6 °C 55 % -5.5 °C 1024.8 hPa 4.6 Km/h SE 0.0 mm  -0.2 °C 7.1 °C
Alleghe (BL) 18/01/17 18.53 -0.6 °C 50 % -9.8 °C 1008.0 hPa 3.3 Km/h SSE 0.0 mm  -5.8 °C 3.1 °C
Alleghe Lago (BL) 18/01/17 18.54 0.2 °C 51 % -8.8 °C 1013.9 hPa 11.7 Km/h N 0.0 mm  -4.6 °C 3.4 °C
Ancona (AN) 18/01/17 18.55 6.4 °C 67 % 0.8 °C 1020.6 hPa 12.9 Km/h WSW 8.0 mm  3.6 °C 7.5 °C
Arenzano (GE) 18/01/17 18.50 5.3 °C 42 % -6.6 °C 1022.5 hPa 0.0 Km/h NW 0.0 mm  4.0 °C 8.6 °C
Arquà Polesine (RO) 18/01/17 18.53 4.1 °C 54 % -4.4 °C 1020.9 hPa 3.6 Km/h NW 0.0 mm  3.5 °C 6.6 °C
Arzignano loc. Castello (VI) 18/01/17 17.45 3.7 °C 60 % -3.3 °C 1025.2 hPa 0.0 Km/h NNW 0.0 mm  -1.1 °C 8.2 °C
Arzignano Pugnello (VI) 18/01/17 18.53 3.3 °C 60 % -3.9 °C 1024.5 hPa 6.0 Km/h ENE 0.4 mm  -1.9 °C 6.8 °C
Arzignano San Bortolo (VI) 18/01/17 19.04 4.0 °C 55 % -4.3 °C 1022.6 hPa 11.3 Km/h NE 0.0 mm  0.9 °C 5.9 °C
Arzignano Tezze (VI) 18/01/17 19.04 4.1 °C 61 % -2.7 °C 1025.6 hPa 1.6 Km/h NE 0.5 mm  -4.6 °C 6.6 °C
Asiago Rifugio Val Formica (VI) 18/01/17 19.00 -3.6 °C 59 % -10.4 °C 1026.3 hPa 0.0 Km/h N 0.0 mm  -8.9 °C -0.9 °C
Avenza-Carrara (MS) 18/01/17 18.45 6.5 °C 41 % -5.8 °C 1021.8 hPa 0.0 Km/h --- 0.0 mm  4.3 °C 10.9 °C
Avio (TN) 18/01/17 18.54 2.9 °C 52 % -6.0 °C 1023.7 hPa 0.0 Km/h NNW 0.0 mm  0.8 °C 8.7 °C
Badia Calavena loc. San Valentino (VR) 18/01/17 18.53 -0.7 °C 65 % -6.4 °C 1023.7 hPa 14.5 Km/h NE 0.0 mm  -2.1 °C 2.9 °C
Barcellona P.G. Centro (ME) 18/01/17 18.53 8.7 °C 69 % 3.3 °C 1010.6 hPa 6.4 Km/h ESE 0.0 mm  5.1 °C 13.9 °C
Barcellona Pozzo di Gotto (ME) 18/01/17 18.53 9.3 °C 69 % 3.9 °C 1010.9 hPa 8.9 Km/h S 0.0 mm  5.4 °C 13.9 °C
Bassano del Grappa (VI) 18/01/17 07.50 0.8 °C 48 % -9.0 °C 1010.1 hPa 3.2 Km/h W 0.0 mm  -1.2 °C 2.1 °C
Bellaria Igea Marina (RN) 18/01/17 18.53 5.5 °C 71 % 0.7 °C 1022.3 hPa 22.5 Km/h E 0.0 mm  4.8 °C 6.6 °C
Bellaria Igea Marina2 (RN) 18/01/17 18.52 5.6 °C 74 % 1.3 °C 1022.3 hPa 25.7 Km/h NE 0.0 mm  4.9 °C 6.5 °C
Bellaria Igea Marina3 (RN) 18/01/17 18.53 5.3 °C 71 % 0.5 °C 1022.0 hPa 33.1 Km/h NE 0.0 mm  4.5 °C 6.9 °C
Belluno Castion (BL) 18/01/17 18.45 5.7 °C 45 % -5.3 °C 1024.3 hPa 9.7 Km/h NNE 0.0 mm  -4.5 °C 7.7 °C
Besenello (TN) 18/01/17 18.53 2.9 °C 45 % -7.9 °C 1026.3 hPa 1.1 Km/h NNE 0.0 mm  -0.7 °C 5.0 °C
Besozzo (VA) 18/01/17 18.48 -1.6 °C 65 % -7.3 °C 1026.0 hPa 0.0 Km/h --- 0.0 mm  -8.4 °C 6.3 °C
Biasì (OT) 18/01/17 18.54 7.0 °C 73 % 2.5 °C 1014.5 hPa 22.4 Km/h N 34.2 mm  4.4 °C 7.3 °C
Bisignano (CS) 18/01/17 18.53 5.9 °C 77 % 2.2 °C 1010.9 hPa 2.6 Km/h S 0.0 mm  2.2 °C 10.1 °C
Bitti (NU) 18/01/17 18.53 2.0 °C 91 % 0.7 °C 1013.0 hPa 7.0 Km/h N 33.0 mm  0.0 °C 3.0 °C
Bolognano di Arco (TN) 18/01/17 18.53 3.6 °C 60 % -3.4 °C 1025.6 hPa 2.4 Km/h SE 0.0 mm  0.6 °C 8.7 °C
Bonorva (SS) 18/01/17 18.50 3.5 °C 94 % 2.6 °C 1015.8 hPa 3.2 Km/h NNW 5.2 mm  0.7 °C 3.6 °C
Borgo Valsugana (TN) 18/01/17 19.00 1.3 °C 47 % -8.8 °C 1027.0 hPa 1.4 Km/h SSW 0.3 mm  -8.0 °C 5.9 °C
Borgofranco d'Ivrea (TO) 18/01/17 18.53 0.2 °C 51 % -8.8 °C 1025.5 hPa 4.3 Km/h NE 0.0 mm  -0.7 °C 9.8 °C
Borore (NU) 18/01/17 18.54 3.6 °C 87 % 1.6 °C 1014.9 hPa 2.0 Km/h ENE 1.8 mm  2.9 °C 6.0 °C
Brebbia (VA) 18/01/17 18.40 -0.3 °C 63 % -6.5 °C 1026.2 hPa 0.0 Km/h ESE 0.0 mm  -6.1 °C 6.2 °C
Bresega (PD) 18/01/17 18.53 4.7 °C 58 % -2.8 °C 1024.7 hPa 24.0 Km/h NE 0.0 mm  3.0 °C 7.1 °C
Brolo c/da Parrazzà (ME) 18/01/17 18.55 8.3 °C 63 % 1.7 °C 1010.8 hPa 14.0 Km/h SE 0.0 mm  5.3 °C 12.6 °C
Brugine2 (PD) 18/01/17 18.52 4.4 °C 63 % -2.0 °C 1025.6 hPa 6.9 Km/h NNE 0.0 mm  2.3 °C 6.2 °C
Buccheri (SR) 18/01/17 18.43 1.7 °C 68 % -3.6 °C 1006.0 hPa 0.0 Km/h SW 5.0 mm  -1.4 °C 2.2 °C
Budoia (PN) 18/01/17 18.45 2.0 °C 63 % -4.3 °C 1025.7 hPa 6.4 Km/h NW 0.0 mm  -0.6 °C 10.1 °C
Ca' Gallo (PU) 18/01/17 19.01 4.9 °C 79 % 1.6 °C 1016.5 hPa 8.2 Km/h N 6.6 mm  2.8 °C 5.4 °C
Calcinato (BS) 18/01/17 18.53 2.3 °C 55 % -5.8 °C 1028.2 hPa 4.8 Km/h NNE 0.0 mm  -3.1 °C 6.9 °C
Calliano (TN) 18/01/17 18.53 2.8 °C 49 % -6.8 °C 1025.1 hPa 0.0 Km/h SSE 0.0 mm  -1.3 °C 4.6 °C
Caltabellotta (AG) 18/01/17 18.50 2.6 °C 95 % 1.8 °C 1012.5 hPa 0.0 Km/h SSE 22.2 mm  -0.7 °C 3.7 °C
Cammarata (AG) 18/01/17 18.53 3.8 °C 66 % -2.0 °C 1011.4 hPa 6.1 Km/h NE 10.8 mm  -0.7 °C 4.2 °C
Campoformido (UD) 18/01/17 18.50 4.6 °C 52 % -4.4 °C 1026.2 hPa 3.2 Km/h ENE 0.0 mm  -0.4 °C 6.5 °C
Camposampiero (PD) 18/01/17 18.58 5.0 °C 21 % -15.6 °C 1025.0 hPa 7.4 Km/h NE 0.0 mm  5.0 °C 5.0 °C
Capodimonte (VT) 18/01/17 18.50 5.2 °C 79 % 1.8 °C 1017.0 hPa 25.8 Km/h NE 0.0 mm  4.2 °C 6.2 °C
Caprarola Centro Storico (VT) 18/01/17 18.53 3.1 °C 79 % -0.2 °C 1014.0 hPa 6.9 Km/h WSW 0.0 mm  1.6 °C 6.4 °C
Caprino (VR) 15/01/17 15.57 7.3 °C 29 % -9.6 °C 1014.6 hPa 1.3 Km/h NE 0.0 mm  0.5 °C 9.1 °C
Carceri (PD) 18/01/17 18.45 4.4 °C 60 % -2.8 °C 1024.6 hPa 25.7 Km/h E 0.0 mm  2.6 °C 7.3 °C
Carmignano loc. Seano (PO) 18/01/17 18.54 5.4 °C 59 % -2.0 °C 1022.1 hPa 24.1 Km/h N 0.0 mm  3.4 °C 5.8 °C
Carpi (MO) 18/01/17 18.54 3.0 °C 62 % -3.6 °C 1024.9 hPa 3.3 Km/h NNE 0.0 mm  -1.6 °C 7.8 °C
Cartigliano (VI) 18/01/17 18.53 3.9 °C 59 % -3.4 °C 1025.3 hPa 0.0 Km/h NNE 0.0 mm  -4.4 °C 9.1 °C
Casotto (VI) 18/01/17 19.04 1.5 °C 58 % -6.1 °C 1024.6 hPa 0.0 Km/h ESE 0.0 mm  -2.9 °C 7.3 °C
Cassano Magnago (VA) 18/01/17 19.00 0.7 °C 60 % -6.2 °C 1026.0 hPa 0.0 Km/h WSW 0.0 mm  -2.9 °C 7.1 °C
Castel d'Azzano (VR) 18/01/17 18.45 4.7 °C 54 % -3.9 °C 845.8 hPa 0.0 Km/h --- 0.0 mm  -2.4 °C 8.0 °C
Castelfranco Veneto (TV) 18/01/17 18.55 4.4 °C 59 % -2.9 °C 1025.9 hPa 0.0 Km/h --- 0.0 mm  -2.7 °C 8.3 °C
Castelfranco Veneto2 (TV) 18/01/17 18.48 4.8 °C 58 % -2.8 °C 1024.3 hPa 0.0 Km/h ENE 0.0 mm  0.1 °C 8.0 °C
Castelgomberto (VI) 18/01/17 11.11 5.3 °C 41 % -6.9 °C 1024.3 hPa 4.5 Km/h ENE 0.0 mm  -3.2 °C 6.0 °C
Castelnuovo V.C. (PI) 18/01/17 18.52 -0.2 °C 84 % -2.5 °C 1020.0 hPa 5.6 Km/h NNW 0.0 mm  -1.7 °C 0.6 °C
Castiglione del Lago (PG) 18/01/17 18.50 4.0 °C 79 % 0.7 °C 1021.2 hPa 12.9 Km/h NNW 0.0 mm  2.6 °C 4.3 °C
Castiglione della Pescaia (GR) 18/01/17 18.53 6.5 °C 59 % -0.9 °C 1022.4 hPa 21.6 Km/h NNE 0.0 mm  5.2 °C 7.4 °C
Castiglione della Pescaia Vaticino (GR) 18/01/17 18.53 6.4 °C 59 % -1.0 °C 1018.6 hPa 0.0 Km/h N 0.0 mm  5.0 °C 7.3 °C
Cavaria con Premezzo (VA) 18/01/17 18.53 0.5 °C 60 % -6.7 °C 1025.1 hPa 2.0 Km/h NE 0.0 mm  -3.6 °C 6.9 °C
Cavazzale (VI) 18/01/17 18.45 4.4 °C 57 % -3.3 °C 1026.4 hPa 0.0 Km/h N 0.4 mm  -3.7 °C 7.3 °C
Cefalù (PA) 18/01/17 18.54 10.2 °C 61 % 3.0 °C 1007.8 hPa 30.6 Km/h SSW 0.0 mm  5.6 °C 11.9 °C
Cerea (VR) 18/01/17 18.40 3.4 °C 59 % -3.9 °C 1025.5 hPa 9.7 Km/h NE 0.0 mm  -2.8 °C 7.9 °C
Chieti (CH) 18/01/17 18.55 70.0 °C 1 % -8.8 °C 0.0 hPa 5.0 Km/h SSW 69.6 mm  70.0 °C 70.0 °C
Chioggia (VE) 18/01/17 09.05 4.3 °C 60 % -2.8 °C 1022.7 hPa 0.0 Km/h N 1.3 mm * 3.9 °C 4.3 °C
Chiusi (SI) 18/01/17 19.03 3.2 °C 83 % 0.6 °C 1016.8 hPa 4.8 Km/h NNE 0.0 mm  1.7 °C 3.3 °C
Cima Grappa (TV) 18/01/17 18.54 -5.5 °C 71 % -9.9 °C 1029.9 hPa 7.8 Km/h W 0.0 mm  -8.1 °C -4.0 °C
Cismon del Grappa loc. Corlo (VI) 18/01/17 18.34 1.7 °C 61 % -5.0 °C 1025.0 hPa 4.6 Km/h SSE 0.0 mm  -1.4 °C 3.6 °C
Cittadella (PD) 18/01/17 19.02 5.2 °C 54 % -3.4 °C 1024.9 hPa 3.7 Km/h SE 0.0 mm  1.9 °C 9.1 °C
Civita Castellana (VT) 18/01/17 18.54 6.1 °C 64 % -0.2 °C 1015.1 hPa 23.5 Km/h NNE 0.0 mm  4.1 °C 9.2 °C
Cogollo del Cengio (VI) 18/01/17 18.51 2.8 °C 34 % -11.5 °C 1023.5 hPa 5.0 Km/h NE 0.0 mm  0.0 °C 5.6 °C
Colle del Piccolo San Bernardo La Thuile (AO) 18/01/17 19.03 -9.4 °C 64 % -15.0 °C 1028.7 hPa 14.5 Km/h ENE 0.0 mm  -573.3 °C -7.6 °C
Colle S. Lucia Posalz (BL) 18/01/17 18.54 -3.1 °C 54 % -11.1 °C 1027.8 hPa 0.0 Km/h SW 0.0 mm  -6.7 °C 1.2 °C
Cologna Veneta Sant'Andrea (VR) 18/01/17 19.00 3.8 °C 64 % -2.4 °C 1023.7 hPa 6.4 Km/h E 0.0 mm  0.6 °C 7.4 °C
Colognola ai Colli (VR) 18/01/17 18.20 4.7 °C 54 % -3.8 °C 1026.4 hPa 4.8 Km/h ENE 0.0 mm  -3.5 °C 7.8 °C
Contrada Dosso Gervasio (VR) 18/01/17 18.30 -1.9 °C 60 % -9.4 °C 1023.9 hPa 2.0 Km/h NNW 0.0 mm  -3.6 °C 2.4 °C
Corrubio di S. Anna d'Alfaedo (VR) 18/01/17 19.00 -0.4 °C 57 % -7.9 °C 1027.1 hPa 1.6 Km/h SSE 0.0 mm  -2.5 °C 2.6 °C
Cosseria Lidora (SV) 18/01/17 18.45 2.9 °C 47 % -7.3 °C 1024.1 hPa 12.9 Km/h WNW 0.0 mm  0.5 °C 5.9 °C
Costa di Vittorio Veneto (TV) 18/01/17 19.04 3.7 °C 57 % -4.0 °C 1024.9 hPa 0.0 Km/h SSW 0.0 mm  -2.3 °C 8.3 °C
Crespano del Grappa (TV) 13/01/17 23.27 -0.2 °C 90 % -1.7 °C 998.2 hPa 5.6 Km/h SSW 8.4 mm  -0.7 °C 4.5 °C
Dorno (PV) 18/01/17 18.54 1.9 °C 57 % -5.7 °C 1026.3 hPa 2.0 Km/h ESE 0.0 mm  -3.8 °C 6.6 °C
Dossobuono (VR) 18/01/17 18.54 4.7 °C 47 % -5.7 °C 1027.0 hPa 3.2 Km/h NE 0.0 mm  -1.9 °C 7.8 °C
Esine (BS) 18/01/17 18.53 0.1 °C 60 % -6.8 °C 1025.4 hPa 3.0 Km/h N 0.0 mm  -5.1 °C 5.0 °C
Falzè di Piave (TV) 18/01/17 18.55 4.6 °C 51 % -4.7 °C 1027.0 hPa 1.0 Km/h --- 0.0 mm  -6.1 °C 7.9 °C
Farra di Soligo (TV) 18/01/17 18.51 5.1 °C 49 % -4.8 °C 1024.3 hPa 0.0 Km/h NNE 0.0 mm  -2.2 °C 7.2 °C
Favaro Veneto (VE) 18/01/17 18.50 3.4 °C 65 % -2.5 °C 1025.8 hPa 12.9 Km/h ENE 0.0 mm  1.3 °C 6.1 °C
Feltre Celarda (BL) 18/01/17 18.54 0.5 °C 76 % -3.2 °C 1022.8 hPa 3.2 Km/h SW 0.0 mm  -10.1 °C 5.8 °C
Ferrara di M.B. (VR) 18/01/17 18.25 -0.9 °C 43 % -12.0 °C 1021.6 hPa 6.4 Km/h N 0.0 mm  -4.9 °C 2.3 °C
Fiavè loc. Ballino (TN) 18/01/17 18.54 -0.1 °C 51 % -9.0 °C 1025.9 hPa 1.1 Km/h S 0.0 mm  -4.4 °C 6.5 °C
Filo di Argenta (FE) 18/01/17 18.55 1.4 °C 82 % -1.3 °C 1024.7 hPa 6.5 Km/h NNE 0.0 mm  0.6 °C 6.2 °C
Fogliano Redipuglia (GO) 18/01/17 19.02 3.7 °C 40 % -8.7 °C 1026.0 hPa 20.9 Km/h E 0.0 mm  1.1 °C 6.0 °C
Foligno (PG) 18/01/17 18.40 5.6 °C 68 % 0.2 °C 1017.3 hPa 9.7 Km/h NNE 3.8 mm  2.3 °C 6.5 °C
Fontanafredda (PN) 18/01/17 18.54 4.2 °C 56 % -3.8 °C 1025.4 hPa 0.0 Km/h NE 0.0 mm  -3.9 °C 9.0 °C
Forchiade S. Tomaso Ag. (BL) 18/01/17 18.55 2.3 °C 42 % -9.3 °C 1022.7 hPa 1.6 Km/h NNW 0.0 mm  -4.3 °C 4.6 °C
Gallio (VI) 18/01/17 19.05 -2.8 °C 65 % -8.4 °C 1026.6 hPa 0.0 Km/h N 0.0 mm  -6.3 °C 2.7 °C
Gardolo (TN) 18/01/17 18.53 2.4 °C 45 % -8.3 °C 1025.6 hPa 0.0 Km/h N 0.0 mm  -1.3 °C 5.2 °C
Genova Albaro (GE) 18/01/17 18.54 8.4 °C 27 % -9.6 °C 1020.0 hPa 11.6 Km/h N 0.0 mm  5.6 °C 10.2 °C
Genova Erzelli (GE) 18/01/17 18.57 7.8 °C 35 % -6.7 °C 1021.3 hPa 14.5 Km/h N 0.0 mm  5.7 °C 9.7 °C
Girifalco (CZ) 18/01/17 18.54 5.1 °C 82 % 2.2 °C 1010.6 hPa 1.6 Km/h SSE 0.0 mm  3.3 °C 7.1 °C
Gorizia (GO) 18/01/17 18.51 4.5 °C 47 % -6.5 °C 1026.4 hPa 19.8 Km/h NNE 0.0 mm  2.5 °C 5.8 °C
Gradisca d'Isonzo (GO) 18/01/17 18.55 3.9 °C 50 % -5.6 °C 1022.5 hPa 0.0 Km/h N 0.0 mm  0.1 °C 6.8 °C
Iglesias (CI) 18/01/17 19.03 5.6 °C 78 % 2.1 °C 1014.4 hPa 0.0 Km/h N 0.0 mm  -573.3 °C 10.8 °C
Isola d'Elba Marina di Campo (LI) 18/01/17 18.30 6.8 °C 64 % 0.4 °C 1013.8 hPa 22.5 Km/h NNE 0.0 mm  5.4 °C 7.1 °C
Jesolo (VE) 16/01/17 12.15 3.7 °C 56 % -4.3 °C 1010.1 hPa 6.4 Km/h N 0.2 mm  1.3 °C 5.0 °C
Lavis (TN) 18/01/17 18.50 3.4 °C 41 % -8.9 °C 1025.3 hPa 8.0 Km/h WNW 0.0 mm  -1.2 °C 4.8 °C
Laxolo (BG) 18/01/17 18.58 -1.5 °C 59 % -8.4 °C 1018.2 hPa 0.0 Km/h E 0.0 mm  -6.6 °C 4.6 °C
Legnago (VR) 18/01/17 18.50 2.8 °C 66 % -3.0 °C 1025.3 hPa 3.2 Km/h NE 0.0 mm  0.2 °C 7.5 °C
Lesmo (MB) 18/01/17 18.50 -1.8 °C 66 % -7.4 °C 1026.5 hPa 0.0 Km/h --- 0.0 mm  -6.7 °C 6.9 °C
Loano (SV) 18/01/17 18.50 9.9 °C 29 % -7.3 °C 1022.1 hPa 19.0 Km/h N 0.0 mm  6.3 °C 10.3 °C
Lovere (BG) 18/01/17 18.41 1.2 °C 40 % -10.9 °C 1025.0 hPa 6.5 Km/h SW 0.0 mm  -3.5 °C 4.5 °C
Lugagnano (VR) 18/01/17 18.53 2.3 °C 61 % -4.4 °C 1025.1 hPa 0.0 Km/h NNE 0.0 mm  -3.4 °C 7.3 °C
Lusiana Sciessere (VI) 18/01/17 17.42 -0.2 °C 60 % -7.0 °C 1023.0 hPa 0.0 Km/h E 0.0 mm  -1.8 °C 4.0 °C
Magnano (BI) 18/01/17 18.53 -2.2 °C 51 % -11.0 °C 1027.1 hPa 0.3 Km/h S 0.0 mm  -6.0 °C 3.1 °C
Malnate San Salvatore (VA) 18/01/17 19.07 -1.9 °C 68 % -7.0 °C 1027.0 hPa 0.0 Km/h SSW 0.3 mm  -6.0 °C 6.1 °C
Marano Vicentino2 (VI) 18/01/17 18.50 1.6 °C 63 % -4.7 °C 1024.9 hPa 0.0 Km/h NW 0.0 mm  -4.9 °C 5.8 °C
Margone (TN) 18/01/17 18.50 0.1 °C 46 % -10.2 °C 1028.5 hPa 7.4 Km/h NNE 0.0 mm  -5.7 °C 1.4 °C
Marostica Valle San Floriano (VI) 18/01/17 18.53 3.0 °C 65 % -2.8 °C 1027.5 hPa 0.0 Km/h NW 0.0 mm  -2.1 °C 8.9 °C
Marta (VT) 18/01/17 18.50 5.0 °C 79 % 1.7 °C 1012.3 hPa 37.6 Km/h N 0.0 mm  3.8 °C 5.9 °C
Martignano (TN) 18/01/17 18.55 2.4 °C 41 % -9.5 °C 1025.2 hPa 0.0 Km/h WNW 0.0 mm  -2.8 °C 3.3 °C
Mascalucia (CT) 18/01/17 19.01 5.0 °C 78 % 1.5 °C 1010.0 hPa 0.0 Km/h N 0.0 mm  0.1 °C 8.5 °C
Masiera di Bagnacavallo (RA) 18/01/17 18.37 3.2 °C 79 % -0.1 °C 1023.4 hPa 7.4 Km/h NNW 0.0 mm  2.4 °C 7.3 °C
Massarosa (LU) 18/01/17 18.50 3.9 °C 51 % -5.3 °C 1021.3 hPa 5.0 Km/h NE 0.0 mm  3.9 °C 9.1 °C
Massone di Arco (TN) 18/01/17 18.50 4.1 °C 55 % -4.1 °C 1023.3 hPa 1.0 Km/h S 0.0 mm  2.3 °C 8.1 °C
Mazzurega (VR) 18/01/17 19.07 1.0 °C 49 % -8.5 °C 1024.9 hPa 1.6 Km/h SW 0.0 mm  -2.0 °C 8.3 °C
Merlara (PD) 18/01/17 18.55 3.9 °C 60 % -3.2 °C 1024.5 hPa 20.9 Km/h ENE 0.0 mm  -0.6 °C 7.1 °C
Mezzana Bigli (PV) 18/01/17 18.50 1.4 °C 58 % -6.0 °C 1024.8 hPa 0.0 Km/h NE 0.0 mm  -3.6 °C 7.2 °C
Migliarino (FE) 18/01/17 18.49 5.0 °C 55 % -3.3 °C 1024.8 hPa 14.8 Km/h N 0.0 mm  3.7 °C 8.0 °C
Miglionico (MT) 18/01/17 18.50 4.4 °C 97 % 4.0 °C 1010.5 hPa 1.6 Km/h NE 18.6 mm  1.1 °C 5.9 °C
Miola di Piné (TN) 18/01/17 18.50 0.1 °C 52 % -8.6 °C 1026.7 hPa 4.5 Km/h NE 0.0 mm  -5.0 °C 2.7 °C
Mirabella Imbaccari (CT) 18/01/17 18.58 4.3 °C 94 % 3.4 °C 1012.8 hPa 5.6 Km/h SW 1.6 mm  1.1 °C 6.9 °C
Molina (VR) 13/01/17 00.11 -0.2 °C 84 % -2.6 °C 1011.1 hPa 0.0 Km/h N 0.0 mm  -0.2 °C -0.2 °C
Monasterolo Torinese (TO) 18/01/17 18.55 0.4 °C 44 % -10.4 °C 1022.5 hPa 0.0 Km/h --- 0.0 mm  -1.6 °C 4.5 °C
Moneglia loc. Casale (GE) 18/01/17 18.50 4.3 °C 47 % -6.1 °C 1020.7 hPa 19.1 Km/h E 0.0 mm  3.4 °C 6.4 °C
Moneglia loc. La Secca (GE) 18/01/17 18.50 7.3 °C 45 % -3.8 °C 1019.6 hPa 5.2 Km/h S 0.0 mm  6.3 °C 9.7 °C
Mongrando San Michele (BI) 18/01/17 18.50 -0.6 °C 57 % -8.0 °C 1025.3 hPa 0.0 Km/h WSW 0.0 mm  -3.9 °C 5.1 °C
Montagna in Valtellina (SO) 18/01/17 18.50 0.0 °C 57 % -7.5 °C 1027.3 hPa 0.0 Km/h ENE 0.0 mm  -6.4 °C 5.3 °C
Montebello Vicentino loc. Selva (VI) 18/01/17 18.50 3.9 °C 54 % -4.6 °C 1025.1 hPa 12.8 Km/h NE 0.0 mm  1.4 °C 6.5 °C
Montecchio Maggiore La Valle (VI) 18/01/17 19.04 5.1 °C 52 % -3.9 °C 1017.5 hPa 5.8 Km/h N 0.0 mm  -2.8 °C 8.9 °C
Montecchio Maggiore Sant'Urbano (VI) 18/01/17 19.07 3.3 °C 48 % -6.7 °C 1028.7 hPa 10.0 Km/h N 0.0 mm  -573.3 °C 5.7 °C
Monteforte d'Alpone (VR) 18/01/17 18.55 4.9 °C 52 % -4.1 °C 1023.9 hPa 16.1 Km/h ENE 0.0 mm  1.6 °C 7.3 °C
Montelabbate (PU) 18/01/17 19.05 5.6 °C 75 % 1.5 °C 1016.1 hPa 8.5 Km/h NE 4.1 mm  4.1 °C 6.3 °C
Montespertoli (FI) 18/01/17 19.04 4.1 °C 57 % -3.7 °C 1021.6 hPa 0.0 Km/h WNW 0.0 mm  2.3 °C 4.3 °C
Montorso Vicentino (VI) 18/01/17 18.50 2.5 °C 62 % -4.0 °C 1025.6 hPa 0.0 Km/h NE 0.2 mm  -0.8 °C 5.2 °C
Muzzano (BI) 18/01/17 18.40 0.2 °C 51 % -8.7 °C 1024.4 hPa 1.6 Km/h NW 0.0 mm  -2.3 °C 4.8 °C
Nichelino (TO) 18/01/17 18.55 1.6 °C 47 % -8.6 °C 1025.2 hPa 0.0 Km/h --- 0.0 mm  -1.4 °C 5.3 °C
Novara (NO) 18/01/17 18.50 -0.8 °C 73 % -5.0 °C 1024.9 hPa 0.0 Km/h --- 0.0 mm  -5.7 °C 5.8 °C
Onara extraurbana (PD) 18/01/17 18.51 4.1 °C 57 % -3.7 °C 1020.0 hPa 0.0 Km/h WNW 0.0 mm  -1.6 °C 8.1 °C
Oppeano (VR) 15/01/17 22.00 -1.1 °C 65 % -6.8 °C 1014.6 hPa 0.0 Km/h --- 0.0 mm  -1.3 °C 8.7 °C
Orosei (NU) 18/01/17 18.56 8.4 °C 80 % 5.2 °C 1014.4 hPa 8.0 Km/h NNE 49.4 mm  5.8 °C 8.5 °C
Ortonovo (SP) 18/01/17 16.58 7.1 °C 31 % -8.9 °C 1012.9 hPa 45.2 Km/h NE 6.3 mm  5.2 °C 17.6 °C
Orvieto (TR) 18/01/17 18.47 5.3 °C 71 % 0.5 °C 1014.3 hPa 7.2 Km/h WSW 0.0 mm  3.6 °C 6.1 °C
Ostana (CN) 18/01/17 18.48 -3.1 °C 50 % -12.1 °C 1025.7 hPa 3.2 Km/h NNW 0.0 mm  -10.6 °C -2.1 °C
Ovaro loc. Liariis (UD) 18/01/17 18.50 1.3 °C 55 % -6.8 °C 1031.5 hPa 0.0 Km/h SE 0.0 mm  -2.6 °C 5.6 °C
Pace del Mela (ME) 18/01/17 18.50 8.7 °C 60 % 1.4 °C 1010.8 hPa 4.5 Km/h S 0.0 mm  4.1 °C 12.9 °C
Padergnone (TN) 18/01/17 18.45 3.2 °C 58 % -4.3 °C 1026.0 hPa 0.0 Km/h SE 0.0 mm  2.1 °C 7.2 °C
Parella (TO) 18/01/17 19.04 1.1 °C 56 % -6.7 °C 1023.9 hPa 0.0 Km/h NW 0.0 mm  -2.2 °C 6.1 °C
Pastrengo (VR) 18/01/17 19.04 2.4 °C 44 % -8.6 °C 1025.6 hPa 0.0 Km/h E 0.0 mm  -2.0 °C 6.8 °C
Pastrengo Cornè (VR) 18/01/17 18.56 2.8 °C 54 % -5.6 °C 1024.9 hPa 0.0 Km/h ENE 0.0 mm  -1.6 °C 6.6 °C
Pecetto Torinese (TO) 18/01/17 19.05 0.4 °C 50 % -8.8 °C 1026.0 hPa 0.0 Km/h WNW 0.0 mm  -1.6 °C 5.5 °C
Pedara (CT) 18/01/17 18.47 4.0 °C 53 % -4.7 °C 1006.5 hPa 6.5 Km/h W 1.8 mm  0.7 °C 6.7 °C
Pedemonte (VR) 18/01/17 18.55 1.9 °C 56 % -5.9 °C 1025.4 hPa 0.0 Km/h N 0.0 mm  -3.9 °C 8.0 °C
Perugia San Mariano (PG) 18/01/17 18.40 4.6 °C 72 % 0.0 °C 1016.0 hPa 5.9 Km/h NNE 0.0 mm  2.6 °C 5.3 °C
Pila Valsesia (VC) 18/01/17 18.55 -2.8 °C 70 % -7.5 °C 1024.4 hPa 0.0 Km/h NNW 0.0 mm  -7.2 °C 3.7 °C
Piovà Massaia (AT) 18/01/17 18.50 0.7 °C 55 % -7.3 °C 1024.6 hPa 0.0 Km/h E 0.0 mm  -0.9 °C 5.2 °C
Pisa zona I Passi (PI) 18/01/17 18.50 6.1 °C 39 % -6.8 °C 1021.3 hPa 0.0 Km/h ENE 0.0 mm  3.6 °C 8.1 °C
Pomezia (RM) 18/01/17 18.50 7.8 °C 61 % 0.7 °C 1012.0 hPa 8.0 Km/h NW 0.0 mm  5.3 °C 11.5 °C
Ponte San Nicolò (PD) 18/01/17 19.05 4.6 °C 55 % -3.7 °C 1024.9 hPa 11.3 Km/h ENE 0.0 mm  2.8 °C 7.1 °C
Pordenone (PN) 18/01/17 18.45 5.7 °C 48 % -4.5 °C 1026.3 hPa 4.8 Km/h E 0.0 mm  1.2 °C 8.8 °C
Pozzolo Formigaro (AL) 18/01/17 18.56 1.0 °C 60 % -5.9 °C 1024.6 hPa 4.6 Km/h NW 0.0 mm  -3.4 °C 5.7 °C
Pray (BI) 18/01/17 18.50 -1.5 °C 71 % -6.1 °C 1025.6 hPa 0.0 Km/h --- 0.0 mm  -7.4 °C 5.3 °C
Quinto di Valpantena (VR) 18/01/17 18.50 2.3 °C 59 % -4.9 °C 1026.0 hPa 1.6 Km/h NW 0.0 mm  -1.6 °C 8.2 °C
Recoaro Terme (VI) 18/01/17 15.26 -0.8 °C 69 % -5.6 °C 1023.2 hPa 0.0 Km/h SSE 0.0 mm  -2.3 °C 2.8 °C
Riccione (RN) 18/01/17 17.55 6.2 °C 77 % 2.5 °C 1022.8 hPa 37.0 Km/h ENE 0.3 mm  5.2 °C 6.7 °C
Rifugio Bocca di Selva (VR) 18/01/17 18.51 -2.3 °C 58 % -9.4 °C 1025.5 hPa 27.4 Km/h NNE 0.0 mm  -7.7 °C -1.7 °C
Rifugio Fiori del Baldo (VR) 18/01/17 18.56 -4.8 °C 54 % -11.4 °C 1019.0 hPa 31.9 Km/h E 0.0 mm  -8.1 °C -4.3 °C
Rifugio Primaneve (VR) 18/01/17 19.08 -4.4 °C 63 % -10.4 °C 1028.0 hPa 22.5 Km/h N 0.3 mm  -9.2 °C -4.0 °C
Rimini (RN) 18/01/17 18.50 6.2 °C 70 % 1.2 °C 1022.6 hPa 27.4 Km/h NE 0.0 mm  5.0 °C 6.9 °C
Rimini Zona Palas (RN) 18/01/17 19.02 6.0 °C 71 % 1.1 °C 1022.9 hPa 20.9 Km/h NE 0.0 mm  4.8 °C 6.8 °C
Rivalba (TO) 18/01/17 18.49 1.0 °C 55 % -7.0 °C 1020.8 hPa 0.0 Km/h NW 0.0 mm  -2.8 °C 6.0 °C
Rivalta sul Mincio (MN) 18/01/17 18.56 2.2 °C 66 % -3.5 °C 1026.2 hPa 1.5 Km/h E 0.0 mm  -3.9 °C 8.1 °C
Roma Prato della Signora (RM) 15/01/17 12.10 7.5 °C 65 % 1.3 °C 1008.0 hPa 4.3 Km/h NNW 0.0 mm  1.4 °C 7.5 °C
Roma Via Salaria (RM) 18/01/17 19.00 3.1 °C 99 % 2.9 °C 1037.5 hPa 2.6 Km/h N 0.0 mm  3.1 °C 3.1 °C
Romano d'Ezzelino Fellette (VI) 18/01/17 19.00 4.3 °C 53 % -4.4 °C 1029.7 hPa 6.4 Km/h N 0.0 mm  -3.5 °C 7.5 °C
Ronciglione Centro (VT) 18/01/17 18.46 3.4 °C 59 % -3.9 °C 1012.0 hPa 12.6 Km/h NNE 0.0 mm  2.0 °C 7.1 °C
Ronciglione - Ponte Cuzzoli (VT) 18/01/17 18.55 3.2 °C 75 % -0.8 °C 1014.9 hPa 8.0 Km/h WNW 0.0 mm  1.6 °C 7.2 °C
Rosolina (RO) 18/01/17 19.00 4.8 °C 63 % -1.7 °C 1024.6 hPa 25.7 Km/h NE 0.0 mm  3.5 °C 6.0 °C
Rossano Veneto (VI) 18/01/17 18.51 4.4 °C 55 % -3.8 °C 1025.9 hPa 4.8 Km/h NE 0.0 mm  -3.6 °C 8.6 °C
S. Giovanni Ilarione2 (VR) 18/01/17 18.50 3.8 °C 57 % -3.9 °C 1026.1 hPa 1.6 Km/h NW 0.0 mm  -2.9 °C 7.1 °C
S. Giovanni Lupatoto (VR) 18/01/17 18.50 4.3 °C 59 % -3.0 °C 1026.4 hPa 1.6 Km/h E 0.0 mm  -1.1 °C 7.8 °C
S. Giovanni Rotondo (FG) 18/01/17 18.55 4.9 °C 89 % 3.2 °C 1013.6 hPa 0.0 Km/h NNE 18.4 mm  2.6 °C 5.7 °C
S. Lorenzo di Vittorio Veneto (TV) 18/01/17 18.50 3.7 °C 54 % -4.7 °C 1026.2 hPa 1.6 Km/h WSW 0.0 mm  1.5 °C 7.2 °C
S. Lorenzo Nuovo (VT) 18/01/17 18.51 2.4 °C 79 % -0.9 °C 1013.0 hPa 31.7 Km/h NNW 0.0 mm  0.9 °C 3.4 °C
S. Maria Maddalena (RO) 18/01/17 18.45 4.1 °C 70 % -1.1 °C 1023.9 hPa 13.0 Km/h ENE 0.0 mm  2.6 °C 6.7 °C
S. Martino Lupari (PD) 18/01/17 18.50 3.8 °C 65 % -2.2 °C 1026.7 hPa 0.0 Km/h --- 0.0 mm  -2.3 °C 8.0 °C
S. Rocco di Villabalzana (VI) 18/01/17 18.53 3.4 °C 59 % -3.9 °C 1025.6 hPa 0.0 Km/h E 1.2 mm  0.0 °C 6.1 °C
Sacile (PN) 18/01/17 18.50 4.9 °C 53 % -3.8 °C 1025.3 hPa 8.0 Km/h NE 0.0 mm  -1.9 °C 8.3 °C
Salcedo (VI) 18/01/17 18.50 2.5 °C 55 % -5.6 °C 1023.2 hPa 4.1 Km/h NNE 0.0 mm  -1.0 °C 5.6 °C
San Benedetto del Tronto (AP) 18/01/17 18.55 6.1 °C 76 % 2.2 °C 1015.0 hPa 9.3 Km/h N 14.9 mm  5.8 °C 7.0 °C
San Cataldo (CL) 18/01/17 18.51 4.0 °C 97 % 3.6 °C 1007.5 hPa 3.5 Km/h SE 16.9 mm  0.3 °C 5.0 °C
San Giovanni la Punta Trappeto (CT) 18/01/17 18.55 5.1 °C 87 % 3.1 °C 1012.1 hPa 8.0 Km/h WNW 1.6 mm  2.4 °C 11.2 °C
San Nazario (VI) 18/01/17 18.56 1.2 °C 61 % -5.5 °C 1025.3 hPa 1.1 Km/h NE 0.0 mm  0.2 °C 8.0 °C
San Pietro in Cariano (VR) 18/01/17 18.49 2.0 °C 45 % -8.7 °C 1025.6 hPa 1.8 Km/h NW 0.0 mm  -2.6 °C 7.3 °C
San Potito Lugo (RA) 18/01/17 09.30 3.1 °C 67 % -2.4 °C 1016.9 hPa 6.1 Km/h N 0.0 mm  1.6 °C 3.3 °C
San Salvo3 (CH) 18/01/17 18.50 3.7 °C 90 % 2.2 °C 1012.6 hPa 0.0 Km/h NW 20.6 mm  3.3 °C 7.6 °C
San Vito (CA) 18/01/17 18.51 7.1 °C 79 % 3.7 °C 1009.0 hPa 4.5 Km/h NNE 12.2 mm  4.6 °C 7.9 °C
Santarcangelo di Romagna (RN) 18/01/17 18.50 5.9 °C 69 % 0.6 °C 1022.5 hPa 19.3 Km/h NNE 0.0 mm  4.9 °C 6.6 °C
Savelli (KR) 18/01/17 18.51 1.6 °C 90 % 0.1 °C 1012.0 hPa 0.2 Km/h S 3.0 mm  -0.1 °C 3.6 °C
Schio (VI) 18/01/17 18.45 2.4 °C 62 % -4.1 °C 1027.7 hPa 1.6 Km/h NW 0.0 mm  -1.7 °C 8.2 °C
Schio Monte Magré (VI) 18/01/17 18.50 1.3 °C 69 % -3.8 °C 0.0 hPa 3.2 Km/h S 0.0 mm  -1.8 °C 4.1 °C
Selva di Cadore Santa Fosca (BL) 14/01/17 19.39 -7.4 °C 62 % -13.4 °C 1005.1 hPa 0.2 Km/h N 0.0 mm  -11.0 °C -1.1 °C
Seremange Erzange (Moselle) 18/01/17 18.50 -3.0 °C 80 % -6.0 °C 1036.5 hPa 6.5 Km/h NE 0.0 mm  -5.6 °C -1.1 °C
Sinnai (CA) 18/01/17 18.45 6.4 °C 83 % 3.7 °C 1014.5 hPa 0.0 Km/h NW 0.6 mm  3.4 °C 8.2 °C
Soave Borgo Bassano (VR) 18/01/17 18.55 5.5 °C 53 % -3.3 °C 1026.0 hPa 5.0 Km/h NE 0.0 mm  0.2 °C 8.0 °C
Soriso (NO) 18/01/17 18.50 1.1 °C 55 % -7.0 °C 1026.1 hPa 0.0 Km/h SW 0.0 mm  -3.1 °C 4.8 °C
Spoltore (PE) 17/01/17 19.50 4.8 °C 98 % 4.5 °C 1011.1 hPa 20.9 Km/h E 68.3 mm  0.3 °C 4.8 °C
Staranzano (GO) 18/01/17 18.51 4.3 °C 46 % -6.3 °C 1026.6 hPa 20.9 Km/h ENE 0.0 mm  3.1 °C 5.2 °C
Stiore - Monteveglio (BO) 18/01/17 18.50 1.1 °C 75 % -2.8 °C 1021.7 hPa 1.6 Km/h N 0.0 mm  -2.3 °C 5.2 °C
Taio Mollaro (TN) 18/01/17 18.50 -0.4 °C 59 % -7.4 °C 1024.7 hPa 0.0 Km/h ESE 0.0 mm  -7.2 °C 2.4 °C
Taranto (TA) 18/01/17 18.55 6.7 °C 90 % 5.1 °C 1007.8 hPa 6.5 Km/h ENE 33.5 mm  5.7 °C 11.3 °C
Todi (PG) 18/01/17 18.55 3.8 °C 77 % 0.1 °C 1016.7 hPa 14.0 Km/h N 0.0 mm  2.1 °C 4.5 °C
Tombolo (PD) 18/01/17 18.51 3.9 °C 59 % -3.4 °C 1026.5 hPa 3.3 Km/h NE 0.0 mm  -1.4 °C 7.8 °C
Torino Regio Parco (TO) 18/01/17 18.51 3.0 °C 50 % -6.4 °C 1027.1 hPa 0.0 Km/h SW 0.0 mm  -0.9 °C 6.8 °C
Torre Annunziata (NA) 18/01/17 18.55 7.0 °C 72 % 2.3 °C 1011.7 hPa 14.8 Km/h E 0.0 mm  5.4 °C 11.1 °C
Torri (FI) 18/01/17 18.45 2.6 °C 71 % -2.1 °C 1020.6 hPa 4.8 Km/h WNW 0.0 mm  0.9 °C 3.0 °C
Torrita di Siena (SI) 18/01/17 18.55 4.1 °C 76 % 0.3 °C 1020.6 hPa 9.7 Km/h N 0.0 mm  2.9 °C 4.7 °C
Tortoreto (TE) 17/01/17 22.36 5.2 °C 79 % 1.9 °C 1011.2 hPa 27.4 Km/h N 73.4 mm  0.3 °C 5.3 °C
Trambileno (TN) 18/01/17 19.00 -1.3 °C 75 % -5.0 °C 1025.6 hPa 0.0 Km/h N 0.3 mm  -5.7 °C 3.1 °C
Tregnago (VR) 18/01/17 18.54 3.8 °C 54 % -4.7 °C 1025.3 hPa 16.1 Km/h NE 0.0 mm  -3.2 °C 6.1 °C
Tregnago Loc. Centro (VR) 18/01/17 18.55 1.6 °C 61 % -5.1 °C 1019.9 hPa 4.8 Km/h NW 0.0 mm  -1.4 °C 6.1 °C
Trento (TN) 18/01/17 18.51 4.7 °C 40 % -7.8 °C 1024.4 hPa 8.0 Km/h NE 0.0 mm  0.2 °C 5.5 °C
Treviso (TV) 18/01/17 18.50 4.8 °C 46 % -5.8 °C 1026.6 hPa 12.0 Km/h NE 0.0 mm  0.3 °C 7.1 °C
Tuscania (VT) 18/01/17 17.00 5.9 °C 66 % 0.0 °C 1014.0 hPa 7.8 Km/h N 0.0 mm  4.4 °C 7.4 °C
Valdobbiadene San Pietro di Barbozza (TV) 18/01/17 18.55 4.2 °C 50 % -5.3 °C 1025.2 hPa 4.8 Km/h E 0.0 mm  1.4 °C 6.4 °C
Valenza (AL) 18/01/17 19.02 2.6 °C 60 % -4.4 °C 1024.9 hPa 0.0 Km/h NNE 0.0 mm  -3.5 °C 4.9 °C
Valli del Pasubio loc. Gisbenti (VI) 18/01/17 18.51 -0.6 °C 32 % -15.3 °C 980.0 hPa 0.9 Km/h WNW 0.0 mm  -5.3 °C 4.8 °C
Varese Ligure (SP) 18/01/17 18.50 2.3 °C 10 % -26.2 °C 1018.2 hPa 16.0 Km/h N 12.3 mm  1.5 °C 5.0 °C
Vasto (CH) 18/01/17 18.51 4.7 °C 30 % -11.4 °C 1013.4 hPa 25.1 Km/h N 11.7 mm  4.3 °C 9.7 °C
Vattaro fraz. Pian dei Pradi (TN) 18/01/17 18.49 0.2 °C 51 % -8.7 °C 1027.4 hPa 0.0 Km/h NNW 0.2 mm  -5.9 °C 1.6 °C
Verona Bgo Venezia (iz3sly) (VR) 18/01/17 18.59 1.4 °C 69 % -3.6 °C 1024.6 hPa 0.0 Km/h WSW 0.0 mm  -4.1 °C 7.6 °C
Vestenanova (VR) 18/01/17 18.50 1.3 °C 49 % -8.2 °C 1007.8 hPa 3.6 Km/h SW 0.0 mm  -2.4 °C 6.1 °C
Vicenza Campedello (VI) 18/01/17 18.54 3.2 °C 68 % -2.2 °C 1026.6 hPa 0.0 Km/h ENE 0.0 mm  -5.8 °C 8.7 °C
Vicenza Moracchino (VI) 18/01/17 18.51 4.2 °C 61 % -2.6 °C 1025.0 hPa 6.4 Km/h N 0.0 mm  -5.0 °C 7.2 °C
Vicenza Pecori Giraldi (VI) 18/01/17 18.50 4.8 °C 76 % 0.9 °C 1026.8 hPa 1.9 Km/h E 0.0 mm  -3.1 °C 10.4 °C
Vicenza S. Lazzaro (VI) 18/01/17 18.50 4.9 °C 57 % -3.3 °C 1025.2 hPa 2.0 Km/h NNW 0.0 mm  -3.0 °C 7.9 °C
Vicenza San Bortolo (VI) 13/01/17 22.23 0.5 °C 95 % -0.2 °C 1003.3 hPa 0.0 Km/h E 9.0 mm  -0.8 °C 2.5 °C
Vicenza San Gaetano (VI) 18/01/17 18.51 4.3 °C 63 % -2.1 °C 1025.9 hPa 0.0 Km/h ENE 0.0 mm  -2.7 °C 9.1 °C
Vidor (TV) 18/01/17 18.56 4.2 °C 53 % -4.5 °C 1024.8 hPa 3.2 Km/h N 0.0 mm  -4.6 °C 8.2 °C
Vigasio (VR) 18/01/17 18.50 3.4 °C 62 % -3.2 °C 1024.3 hPa 1.6 Km/h ESE 0.0 mm  -2.1 °C 8.4 °C
Vigevano (PV) 16/01/17 03.02 -0.9 °C 27 % -17.5 °C 993.4 hPa 0.0 Km/h N 0.0 mm  -0.9 °C 1.1 °C
Viozene Toria (CN) 18/01/17 18.50 -0.4 °C 31 % -15.4 °C 1015.8 hPa 11.0 Km/h SW 0.0 mm  -4.1 °C 1.4 °C
Viterbo Santa Barbara (VT) 18/01/17 19.00 4.2 °C 71 % -0.6 °C 1014.8 hPa 38.9 Km/h NE 0.0 mm  2.6 °C 6.6 °C
Vitorchiano Pallone (VT) 18/01/17 18.40 3.8 °C 75 % -0.2 °C 1014.5 hPa 1.6 Km/h N 0.0 mm  2.4 °C 6.5 °C
Vittorio Veneto (TV) 18/01/17 19.00 2.9 °C 63 % -3.4 °C 1026.0 hPa 0.0 Km/h SW 0.0 mm  -2.4 °C 8.2 °C
Vittorio Veneto Parco Fenderl (TV) 18/01/17 19.00 2.0 °C 66 % -3.7 °C 1026.0 hPa 0.0 Km/h N 0.0 mm  -1.5 °C 9.9 °C
Volpago del Montello (TV) 18/01/17 18.45 4.2 °C 56 % -3.8 °C 1025.4 hPa 0.0 Km/h --- 0.0 mm  -2.3 °C 7.3 °C
 
(*) = Precipitazioni nelle ultime 24h.
Dati non aggiornati nell'ultima ora.
   
In collaborazione con:
 
Top! Top!